sensor_id;sensor_type;location;lat;lon;timestamp;pressure;altitude;pressure_sealevel;temperature;humidity
79729;BME280;69218;52.132;5.418;2023-07-20T00:02:18;101567.72;;;16.98;79.78
79729;BME280;69218;52.132;5.418;2023-07-20T00:04:45;101567.84;;;16.97;78.54
79729;BME280;69218;52.132;5.418;2023-07-20T00:07:11;101564.66;;;16.93;78.72
79729;BME280;69218;52.132;5.418;2023-07-20T00:09:38;101566.75;;;16.90;77.91
79729;BME280;69218;52.132;5.418;2023-07-20T00:12:04;101569.25;;;16.91;80.05
79729;BME280;69218;52.132;5.418;2023-07-20T00:14:31;101567.59;;;16.90;79.74
79729;BME280;69218;52.132;5.418;2023-07-20T00:16:58;101567.91;;;16.87;79.26
79729;BME280;69218;52.132;5.418;2023-07-20T00:19:26;101571.69;;;16.85;78.62
79729;BME280;69218;52.132;5.418;2023-07-20T00:21:53;101559.28;;;16.75;79.79
79729;BME280;69218;52.132;5.418;2023-07-20T00:24:22;101564.88;;;16.72;80.74
79729;BME280;69218;52.132;5.418;2023-07-20T00:26:48;101565.97;;;16.70;78.00
79729;BME280;69218;52.132;5.418;2023-07-20T00:29:15;101566.69;;;16.72;78.75
79729;BME280;69218;52.132;5.418;2023-07-20T00:31:42;101571.69;;;16.65;79.31
79729;BME280;69218;52.132;5.418;2023-07-20T00:34:10;101568.22;;;16.65;78.75
79729;BME280;69218;52.132;5.418;2023-07-20T00:36:37;101570.88;;;16.65;76.90
79729;BME280;69218;52.132;5.418;2023-07-20T00:39:04;101571.97;;;16.62;78.29
79729;BME280;69218;52.132;5.418;2023-07-20T00:41:30;101563.75;;;16.56;77.71
79729;BME280;69218;52.132;5.418;2023-07-20T00:43:58;101566.56;;;16.54;78.94
79729;BME280;69218;52.132;5.418;2023-07-20T00:46:25;101562.09;;;16.55;77.77
79729;BME280;69218;52.132;5.418;2023-07-20T00:48:52;101567.28;;;16.56;77.58
79729;BME280;69218;52.132;5.418;2023-07-20T00:51:21;101561.84;;;16.48;77.91
79729;BME280;69218;52.132;5.418;2023-07-20T00:53:48;101562.97;;;16.45;78.48
79729;BME280;69218;52.132;5.418;2023-07-20T00:56:15;101566.75;;;16.43;78.94
79729;BME280;69218;52.132;5.418;2023-07-20T00:58:42;101561.72;;;16.40;76.76
79729;BME280;69218;52.132;5.418;2023-07-20T01:01:08;101566.84;;;16.41;76.54
79729;BME280;69218;52.132;5.418;2023-07-20T01:03:35;101564.81;;;16.35;78.57
79729;BME280;69218;52.132;5.418;2023-07-20T01:09:13;101565.50;;;16.18;78.51
79729;BME280;69218;52.132;5.418;2023-07-20T01:14:18;101571.09;;;16.15;76.68
79729;BME280;69218;52.132;5.418;2023-07-20T01:16:45;101570.13;;;16.16;76.84
79729;BME280;69218;52.132;5.418;2023-07-20T01:19:13;101569.84;;;16.09;77.56
79729;BME280;69218;52.132;5.418;2023-07-20T01:22:24;101568.44;;;16.05;75.42
79729;BME280;69218;52.132;5.418;2023-07-20T01:24:56;101563.59;;;16.01;76.53
79729;BME280;69218;52.132;5.418;2023-07-20T01:32:57;101570.81;;;15.79;78.68
79729;BME280;69218;52.132;5.418;2023-07-20T01:35:28;101576.94;;;15.80;76.82
79729;BME280;69218;52.132;5.418;2023-07-20T01:37:55;101572.34;;;15.82;75.63
79729;BME280;69218;52.132;5.418;2023-07-20T01:40:24;101574.00;;;15.83;76.20
79729;BME280;69218;52.132;5.418;2023-07-20T01:42:51;101567.31;;;15.69;78.58
79729;BME280;69218;52.132;5.418;2023-07-20T01:45:19;101568.25;;;15.58;78.30
79729;BME280;69218;52.132;5.418;2023-07-20T01:47:45;101563.09;;;15.57;77.93
79729;BME280;69218;52.132;5.418;2023-07-20T01:50:12;101571.31;;;15.54;78.20
79729;BME280;69218;52.132;5.418;2023-07-20T01:52:38;101567.53;;;15.47;77.08
79729;BME280;69218;52.132;5.418;2023-07-20T01:55:06;101568.75;;;15.43;79.30
79729;BME280;69218;52.132;5.418;2023-07-20T01:57:32;101583.38;;;15.37;80.03
79729;BME280;69218;52.132;5.418;2023-07-20T01:59:59;101583.78;;;15.32;79.82
79729;BME280;69218;52.132;5.418;2023-07-20T02:02:26;101587.63;;;15.28;79.13
79729;BME280;69218;52.132;5.418;2023-07-20T02:04:54;101585.00;;;15.28;80.04
79729;BME280;69218;52.132;5.418;2023-07-20T02:07:21;101580.81;;;15.26;78.12
79729;BME280;69218;52.132;5.418;2023-07-20T02:09:47;101581.34;;;15.20;80.63
79729;BME280;69218;52.132;5.418;2023-07-20T02:12:14;101586.66;;;15.20;79.58
79729;BME280;69218;52.132;5.418;2023-07-20T02:14:42;101578.16;;;15.16;79.93
79729;BME280;69218;52.132;5.418;2023-07-20T02:17:08;101583.56;;;15.15;79.81
79729;BME280;69218;52.132;5.418;2023-07-20T02:19:37;101581.75;;;15.15;80.59
79729;BME280;69218;52.132;5.418;2023-07-20T02:22:04;101574.81;;;15.14;80.96
79729;BME280;69218;52.132;5.418;2023-07-20T02:24:32;101589.44;;;15.18;81.33
79729;BME280;69218;52.132;5.418;2023-07-20T02:26:59;101582.63;;;15.16;81.88
79729;BME280;69218;52.132;5.418;2023-07-20T02:29:26;101591.47;;;15.15;80.41
79729;BME280;69218;52.132;5.418;2023-07-20T02:31:52;101583.84;;;15.11;80.70
79729;BME280;69218;52.132;5.418;2023-07-20T02:34:19;101584.94;;;15.09;81.08
79729;BME280;69218;52.132;5.418;2023-07-20T02:36:46;101581.03;;;15.03;80.38
79729;BME280;69218;52.132;5.418;2023-07-20T02:39:12;101583.22;;;14.98;81.03
79729;BME280;69218;52.132;5.418;2023-07-20T02:41:39;101584.47;;;14.94;80.13
79729;BME280;69218;52.132;5.418;2023-07-20T02:44:05;101580.13;;;14.93;81.20
79729;BME280;69218;52.132;5.418;2023-07-20T02:46:32;101580.78;;;14.86;81.58
79729;BME280;69218;52.132;5.418;2023-07-20T02:48:59;101582.88;;;14.82;81.09
79729;BME280;69218;52.132;5.418;2023-07-20T02:51:25;101583.72;;;14.82;79.76
79729;BME280;69218;52.132;5.418;2023-07-20T02:53:52;101583.56;;;14.84;78.67
79729;BME280;69218;52.132;5.418;2023-07-20T02:56:18;101588.31;;;14.80;79.78
79729;BME280;69218;52.132;5.418;2023-07-20T02:58:45;101588.09;;;14.72;79.11
79729;BME280;69218;52.132;5.418;2023-07-20T03:01:12;101595.19;;;14.72;78.63
79729;BME280;69218;52.132;5.418;2023-07-20T03:03:39;101599.75;;;14.70;78.24
79729;BME280;69218;52.132;5.418;2023-07-20T03:06:07;101609.63;;;14.68;79.29
79729;BME280;69218;52.132;5.418;2023-07-20T03:08:35;101609.63;;;14.68;78.49
79729;BME280;69218;52.132;5.418;2023-07-20T03:11:02;101614.75;;;14.69;78.71
79729;BME280;69218;52.132;5.418;2023-07-20T03:13:29;101616.69;;;14.67;78.61
79729;BME280;69218;52.132;5.418;2023-07-20T03:15:56;101621.66;;;14.61;79.03
79729;BME280;69218;52.132;5.418;2023-07-20T03:18:22;101618.69;;;14.54;78.46
79729;BME280;69218;52.132;5.418;2023-07-20T03:20:49;101624.81;;;14.54;77.76
79729;BME280;69218;52.132;5.418;2023-07-20T03:23:15;101631.56;;;14.47;79.85
79729;BME280;69218;52.132;5.418;2023-07-20T03:25:43;101630.00;;;14.45;78.24
79729;BME280;69218;52.132;5.418;2023-07-20T03:28:09;101626.50;;;14.44;79.25
79729;BME280;69218;52.132;5.418;2023-07-20T03:30:36;101630.22;;;14.42;79.47
79729;BME280;69218;52.132;5.418;2023-07-20T03:33:03;101625.66;;;14.44;79.34
79729;BME280;69218;52.132;5.418;2023-07-20T03:35:30;101619.44;;;14.45;77.75
79729;BME280;69218;52.132;5.418;2023-07-20T03:37:57;101619.34;;;14.46;78.42
79729;BME280;69218;52.132;5.418;2023-07-20T03:40:23;101619.81;;;14.40;78.58
79729;BME280;69218;52.132;5.418;2023-07-20T03:42:51;101622.97;;;14.34;78.14
79729;BME280;69218;52.132;5.418;2023-07-20T03:45:17;101618.88;;;14.30;78.77
79729;BME280;69218;52.132;5.418;2023-07-20T03:47:44;101626.47;;;14.23;79.95
79729;BME280;69218;52.132;5.418;2023-07-20T03:50:11;101623.25;;;14.20;78.40
79729;BME280;69218;52.132;5.418;2023-07-20T03:52:37;101619.41;;;14.24;78.41
79729;BME280;69218;52.132;5.418;2023-07-20T03:55:04;101630.66;;;14.26;78.66
79729;BME280;69218;52.132;5.418;2023-07-20T03:57:31;101625.41;;;14.26;77.24
79729;BME280;69218;52.132;5.418;2023-07-20T03:59:59;101622.06;;;14.24;78.07
79729;BME280;69218;52.132;5.418;2023-07-20T04:02:26;101621.47;;;14.20;79.52
79729;BME280;69218;52.132;5.418;2023-07-20T04:04:52;101631.81;;;14.12;80.87
79729;BME280;69218;52.132;5.418;2023-07-20T04:07:19;101628.56;;;14.09;81.01
79729;BME280;69218;52.132;5.418;2023-07-20T04:09:45;101634.31;;;14.14;79.01
79729;BME280;69218;52.132;5.418;2023-07-20T04:12:12;101638.47;;;14.16;81.47
79729;BME280;69218;52.132;5.418;2023-07-20T04:14:38;101633.22;;;14.16;81.53
79729;BME280;69218;52.132;5.418;2023-07-20T04:17:05;101637.41;;;14.19;79.00
79729;BME280;69218;52.132;5.418;2023-07-20T04:19:32;101646.72;;;14.23;79.88
79729;BME280;69218;52.132;5.418;2023-07-20T04:21:58;101637.63;;;14.27;80.06
79729;BME280;69218;52.132;5.418;2023-07-20T04:24:25;101646.22;;;14.29;79.86
79729;BME280;69218;52.132;5.418;2023-07-20T04:26:51;101646.00;;;14.32;79.62
79729;BME280;69218;52.132;5.418;2023-07-20T04:29:18;101647.78;;;14.32;78.45
79729;BME280;69218;52.132;5.418;2023-07-20T04:31:44;101654.88;;;14.31;78.81
79729;BME280;69218;52.132;5.418;2023-07-20T04:34:11;101647.91;;;14.30;80.43
79729;BME280;69218;52.132;5.418;2023-07-20T04:36:38;101658.84;;;14.25;78.74
79729;BME280;69218;52.132;5.418;2023-07-20T04:39:05;101652.59;;;14.26;79.10
79729;BME280;69218;52.132;5.418;2023-07-20T04:41:51;101658.00;;;14.25;79.26
79729;BME280;69218;52.132;5.418;2023-07-20T04:44:17;101657.41;;;14.21;79.04
79729;BME280;69218;52.132;5.418;2023-07-20T04:46:44;101671.69;;;14.19;77.79
79729;BME280;69218;52.132;5.418;2023-07-20T04:49:12;101664.00;;;14.16;79.47
79729;BME280;69218;52.132;5.418;2023-07-20T04:51:39;101661.50;;;14.14;79.19
79729;BME280;69218;52.132;5.418;2023-07-20T04:54:06;101664.16;;;14.14;78.48
79729;BME280;69218;52.132;5.418;2023-07-20T04:56:33;101659.72;;;14.15;79.17
79729;BME280;69218;52.132;5.418;2023-07-20T04:59:02;101660.44;;;14.17;79.38
79729;BME280;69218;52.132;5.418;2023-07-20T05:01:29;101664.16;;;14.14;77.44
79729;BME280;69218;52.132;5.418;2023-07-20T05:03:55;101664.50;;;14.21;77.35
79729;BME280;69218;52.132;5.418;2023-07-20T05:06:22;101660.66;;;14.25;77.71
79729;BME280;69218;52.132;5.418;2023-07-20T05:08:49;101660.38;;;14.28;77.63
79729;BME280;69218;52.132;5.418;2023-07-20T05:11:15;101661.69;;;14.34;77.46
79729;BME280;69218;52.132;5.418;2023-07-20T05:13:42;101664.19;;;14.35;80.23
79729;BME280;69218;52.132;5.418;2023-07-20T05:16:09;101663.97;;;14.38;78.64
79729;BME280;69218;52.132;5.418;2023-07-20T05:18:35;101671.59;;;14.41;77.60
79729;BME280;69218;52.132;5.418;2023-07-20T05:21:02;101664.06;;;14.48;79.08
79729;BME280;69218;52.132;5.418;2023-07-20T05:23:28;101671.59;;;14.52;80.50
79729;BME280;69218;52.132;5.418;2023-07-20T05:25:56;101662.56;;;14.55;79.38
79729;BME280;69218;52.132;5.418;2023-07-20T05:28:26;101657.75;;;14.60;81.45
79729;BME280;69218;52.132;5.418;2023-07-20T05:30:53;101658.94;;;14.67;81.93
79729;BME280;69218;52.132;5.418;2023-07-20T05:33:21;101663.88;;;14.81;80.85
79729;BME280;69218;52.132;5.418;2023-07-20T05:35:48;101663.28;;;14.99;81.81
79729;BME280;69218;52.132;5.418;2023-07-20T05:38:14;101669.78;;;15.16;80.00
79729;BME280;69218;52.132;5.418;2023-07-20T05:40:41;101668.88;;;15.36;80.80
79729;BME280;69218;52.132;5.418;2023-07-20T05:43:10;101666.84;;;15.49;79.11
79729;BME280;69218;52.132;5.418;2023-07-20T05:45:37;101668.31;;;15.63;79.36
79729;BME280;69218;52.132;5.418;2023-07-20T05:48:04;101663.84;;;15.63;79.81
79729;BME280;69218;52.132;5.418;2023-07-20T05:50:31;101660.97;;;15.67;80.65
79729;BME280;69218;52.132;5.418;2023-07-20T05:52:57;101663.06;;;15.73;79.65
79729;BME280;69218;52.132;5.418;2023-07-20T05:55:24;101658.19;;;15.78;79.29
79729;BME280;69218;52.132;5.418;2023-07-20T05:57:50;101661.84;;;15.86;80.33
79729;BME280;69218;52.132;5.418;2023-07-20T06:00:17;101662.69;;;15.97;80.17
79729;BME280;69218;52.132;5.418;2023-07-20T06:02:45;101667.84;;;16.08;78.82
79729;BME280;69218;52.132;5.418;2023-07-20T06:05:14;101667.56;;;16.11;77.08
79729;BME280;69218;52.132;5.418;2023-07-20T06:07:41;101672.56;;;16.04;79.36
79729;BME280;69218;52.132;5.418;2023-07-20T06:10:08;101672.84;;;16.11;79.08
79729;BME280;69218;52.132;5.418;2023-07-20T06:12:35;101675.78;;;16.17;80.31
79729;BME280;69218;52.132;5.418;2023-07-20T06:15:05;101674.25;;;16.25;78.37
79729;BME280;69218;52.132;5.418;2023-07-20T06:17:31;101676.78;;;16.36;76.95
79729;BME280;69218;52.132;5.418;2023-07-20T06:19:58;101679.13;;;16.58;77.20
79729;BME280;69218;52.132;5.418;2023-07-20T06:22:24;101675.78;;;16.75;76.19
79729;BME280;69218;52.132;5.418;2023-07-20T06:24:51;101679.44;;;16.74;75.08
79729;BME280;69218;52.132;5.418;2023-07-20T06:27:17;101679.72;;;16.71;75.03
79729;BME280;69218;52.132;5.418;2023-07-20T06:29:44;101680.25;;;16.85;75.15
79729;BME280;69218;52.132;5.418;2023-07-20T06:32:11;101676.44;;;16.97;74.73
79729;BME280;69218;52.132;5.418;2023-07-20T06:34:37;101681.31;;;17.01;72.19
79729;BME280;69218;52.132;5.418;2023-07-20T06:37:06;101687.22;;;16.86;71.68
79729;BME280;69218;52.132;5.418;2023-07-20T06:39:33;101689.19;;;16.74;73.39
79729;BME280;69218;52.132;5.418;2023-07-20T06:42:02;101688.72;;;16.69;74.05
79729;BME280;69218;52.132;5.418;2023-07-20T06:44:30;101689.03;;;16.66;75.53
79729;BME280;69218;52.132;5.418;2023-07-20T06:46:56;101694.59;;;16.82;75.43
79729;BME280;69218;52.132;5.418;2023-07-20T06:49:26;101701.69;;;16.91;72.54
79729;BME280;69218;52.132;5.418;2023-07-20T06:51:53;101699.88;;;17.01;72.67
79729;BME280;69218;52.132;5.418;2023-07-20T06:54:20;101698.84;;;17.22;73.39
79729;BME280;69218;52.132;5.418;2023-07-20T06:56:52;101698.13;;;17.29;72.22
79729;BME280;69218;52.132;5.418;2023-07-20T06:59:22;101704.66;;;17.35;70.34
79729;BME280;69218;52.132;5.418;2023-07-20T07:01:50;101698.72;;;17.51;69.54
79729;BME280;69218;52.132;5.418;2023-07-20T07:04:17;101690.66;;;17.80;70.45
79729;BME280;69218;52.132;5.418;2023-07-20T07:06:44;101697.53;;;18.00;67.81
79729;BME280;69218;52.132;5.418;2023-07-20T07:09:13;101699.25;;;17.92;69.06
79729;BME280;69218;52.132;5.418;2023-07-20T07:11:39;101687.56;;;17.84;69.11
79729;BME280;69218;52.132;5.418;2023-07-20T07:14:06;101701.09;;;17.81;68.88
79729;BME280;69218;52.132;5.418;2023-07-20T07:16:34;101701.31;;;17.70;69.34
79729;BME280;69218;52.132;5.418;2023-07-20T07:19:07;101693.22;;;17.72;69.57
79729;BME280;69218;52.132;5.418;2023-07-20T07:21:36;101694.59;;;17.66;67.51
79729;BME280;69218;52.132;5.418;2023-07-20T07:24:03;101691.13;;;17.93;68.05
79729;BME280;69218;52.132;5.418;2023-07-20T07:26:39;101688.13;;;18.24;66.85
79729;BME280;69218;52.132;5.418;2023-07-20T07:29:05;101692.97;;;18.46;66.54
79729;BME280;69218;52.132;5.418;2023-07-20T07:31:34;101695.63;;;18.64;66.50
79729;BME280;69218;52.132;5.418;2023-07-20T07:34:02;101698.81;;;18.85;65.04
79729;BME280;69218;52.132;5.418;2023-07-20T07:36:29;101701.50;;;18.93;66.18
79729;BME280;69218;52.132;5.418;2023-07-20T07:38:55;101696.00;;;19.13;64.72
79729;BME280;69218;52.132;5.418;2023-07-20T07:41:25;101701.56;;;19.28;63.76
79729;BME280;69218;52.132;5.418;2023-07-20T07:43:51;101694.25;;;19.30;63.48
79729;BME280;69218;52.132;5.418;2023-07-20T07:46:20;101702.63;;;19.43;62.71
79729;BME280;69218;52.132;5.418;2023-07-20T07:48:49;101709.13;;;19.40;62.29
79729;BME280;69218;52.132;5.418;2023-07-20T07:51:16;101701.19;;;19.48;60.90
79729;BME280;69218;52.132;5.418;2023-07-20T07:53:43;101700.97;;;19.68;61.76
79729;BME280;69218;52.132;5.418;2023-07-20T07:56:10;101700.84;;;19.86;59.33
79729;BME280;69218;52.132;5.418;2023-07-20T07:58:37;101703.34;;;19.87;57.46
79729;BME280;69218;52.132;5.418;2023-07-20T08:01:04;101696.69;;;19.91;57.04
79729;BME280;69218;52.132;5.418;2023-07-20T08:03:30;101696.69;;;19.91;58.17
79729;BME280;69218;52.132;5.418;2023-07-20T08:05:57;101703.88;;;19.99;57.07
79729;BME280;69218;52.132;5.418;2023-07-20T08:08:29;101699.09;;;20.11;56.43
79729;BME280;69218;52.132;5.418;2023-07-20T08:10:58;101694.88;;;20.00;56.91
79729;BME280;69218;52.132;5.418;2023-07-20T08:13:24;101691.75;;;20.05;56.64
79729;BME280;69218;52.132;5.418;2023-07-20T08:15:52;101693.59;;;20.12;57.13
79729;BME280;69218;52.132;5.418;2023-07-20T08:18:19;101694.59;;;20.27;57.75
79729;BME280;69218;52.132;5.418;2023-07-20T08:20:46;101692.78;;;20.36;56.99
79729;BME280;69218;52.132;5.418;2023-07-20T08:23:13;101692.00;;;20.60;56.69
79729;BME280;69218;52.132;5.418;2023-07-20T08:25:40;101693.81;;;20.68;55.65
79729;BME280;69218;52.132;5.418;2023-07-20T08:28:11;101699.31;;;20.82;54.39
79729;BME280;69218;52.132;5.418;2023-07-20T08:30:48;101699.97;;;20.76;51.52
79729;BME280;69218;52.132;5.418;2023-07-20T08:33:18;101697.81;;;20.55;52.96
79729;BME280;69218;52.132;5.418;2023-07-20T08:35:49;101689.34;;;20.52;51.99
79729;BME280;69218;52.132;5.418;2023-07-20T08:38:15;101696.50;;;20.51;53.53
79729;BME280;69218;52.132;5.418;2023-07-20T08:40:43;101700.13;;;20.50;52.45
79729;BME280;69218;52.132;5.418;2023-07-20T08:43:12;101710.16;;;20.73;50.43
79729;BME280;69218;52.132;5.418;2023-07-20T08:45:40;101708.78;;;20.85;49.55
79729;BME280;69218;52.132;5.418;2023-07-20T08:48:07;101701.13;;;20.98;48.98
79729;BME280;69218;52.132;5.418;2023-07-20T08:50:35;101698.06;;;21.26;49.17
79729;BME280;69218;52.132;5.418;2023-07-20T08:53:02;101692.38;;;21.45;50.30
79729;BME280;69218;52.132;5.418;2023-07-20T08:55:30;101702.03;;;21.77;50.46
79729;BME280;69218;52.132;5.418;2023-07-20T08:57:58;101708.47;;;21.99;49.66
79729;BME280;69218;52.132;5.418;2023-07-20T09:00:26;101702.75;;;22.02;46.61
79729;BME280;69218;52.132;5.418;2023-07-20T09:02:55;101697.06;;;22.13;47.26
79729;BME280;69218;52.132;5.418;2023-07-20T09:05:23;101707.75;;;22.36;46.44
79729;BME280;69218;52.132;5.418;2023-07-20T09:07:53;101691.78;;;22.28;46.46
79729;BME280;69218;52.132;5.418;2023-07-20T09:10:24;101702.44;;;22.51;48.05
79729;BME280;69218;52.132;5.418;2023-07-20T09:12:51;101693.66;;;22.42;45.03
79729;BME280;69218;52.132;5.418;2023-07-20T09:15:19;101691.53;;;22.15;45.47
79729;BME280;69218;52.132;5.418;2023-07-20T09:17:47;101693.13;;;21.93;49.99
79729;BME280;69218;52.132;5.418;2023-07-20T09:20:16;101690.84;;;22.13;45.89
79729;BME280;69218;52.132;5.418;2023-07-20T09:22:48;101693.09;;;22.01;46.58
79729;BME280;69218;52.132;5.418;2023-07-20T09:25:17;101693.84;;;21.87;47.74
79729;BME280;69218;52.132;5.418;2023-07-20T09:27:48;101698.53;;;21.77;47.68
79729;BME280;69218;52.132;5.418;2023-07-20T09:30:18;101696.59;;;22.02;46.25
79729;BME280;69218;52.132;5.418;2023-07-20T09:32:49;101689.75;;;22.30;42.72
79729;BME280;69218;52.132;5.418;2023-07-20T09:35:21;101692.22;;;22.32;43.07
79729;BME280;69218;52.132;5.418;2023-07-20T09:37:55;101693.50;;;22.21;41.26
79729;BME280;69218;52.132;5.418;2023-07-20T09:40:27;101688.09;;;22.29;43.05
79729;BME280;69218;52.132;5.418;2023-07-20T09:43:15;101681.72;;;22.53;40.66
79729;BME280;69218;52.132;5.418;2023-07-20T09:45:46;101679.19;;;22.74;41.78
79729;BME280;69218;52.132;5.418;2023-07-20T09:48:15;101688.31;;;22.80;44.00
79729;BME280;69218;52.132;5.418;2023-07-20T09:50:49;101690.50;;;22.99;43.82
79729;BME280;69218;52.132;5.418;2023-07-20T09:53:19;101683.81;;;22.81;42.12
79729;BME280;69218;52.132;5.418;2023-07-20T09:55:47;101688.22;;;22.73;43.26
79729;BME280;69218;52.132;5.418;2023-07-20T09:58:15;101679.53;;;23.09;41.02
79729;BME280;69218;52.132;5.418;2023-07-20T10:00:43;101680.81;;;23.43;42.13
79729;BME280;69218;52.132;5.418;2023-07-20T10:03:20;101680.50;;;23.52;42.28
79729;BME280;69218;52.132;5.418;2023-07-20T10:05:56;101676.00;;;23.53;42.49
79729;BME280;69218;52.132;5.418;2023-07-20T10:08:25;101678.75;;;23.74;40.73
79729;BME280;69218;52.132;5.418;2023-07-20T10:10:57;101678.22;;;24.00;38.22
79729;BME280;69218;52.132;5.418;2023-07-20T10:13:29;101671.16;;;24.14;40.52
79729;BME280;69218;52.132;5.418;2023-07-20T10:16:05;101675.47;;;24.15;40.17
79729;BME280;69218;52.132;5.418;2023-07-20T10:19:01;101676.84;;;23.68;40.27
79729;BME280;69218;52.132;5.418;2023-07-20T10:21:29;101674.53;;;23.36;42.44
79729;BME280;69218;52.132;5.418;2023-07-20T10:23:59;101673.78;;;23.71;42.49
79729;BME280;69218;52.132;5.418;2023-07-20T10:26:26;101662.72;;;23.96;36.63
79729;BME280;69218;52.132;5.418;2023-07-20T10:28:53;101664.41;;;23.82;35.56
79729;BME280;69218;52.132;5.418;2023-07-20T10:31:22;101667.31;;;23.51;39.06
79729;BME280;69218;52.132;5.418;2023-07-20T10:33:49;101665.13;;;23.40;39.62
79729;BME280;69218;52.132;5.418;2023-07-20T10:36:24;101670.41;;;23.33;39.87
79729;BME280;69218;52.132;5.418;2023-07-20T10:38:56;101662.38;;;23.33;41.92
79729;BME280;69218;52.132;5.418;2023-07-20T10:41:37;101669.91;;;23.59;41.29
79729;BME280;69218;52.132;5.418;2023-07-20T10:44:08;101657.19;;;23.61;39.76
79729;BME280;69218;52.132;5.418;2023-07-20T10:46:44;101658.84;;;23.62;40.01
79729;BME280;69218;52.132;5.418;2023-07-20T10:49:13;101665.28;;;23.82;39.25
79729;BME280;69218;52.132;5.418;2023-07-20T10:51:46;101654.75;;;24.24;38.73
79729;BME280;69218;52.132;5.418;2023-07-20T10:56:44;101645.06;;;24.72;37.88
79729;BME280;69218;52.132;5.418;2023-07-20T11:01:58;101647.81;;;25.13;34.75
79729;BME280;69218;52.132;5.418;2023-07-20T11:04:54;101648.50;;;25.22;37.17
79729;BME280;69218;52.132;5.418;2023-07-20T11:07:38;101652.19;;;24.86;37.98
79729;BME280;69218;52.132;5.418;2023-07-20T11:13:31;101649.75;;;24.91;37.75
79729;BME280;69218;52.132;5.418;2023-07-20T11:18:25;101642.03;;;25.58;33.55
79729;BME280;69218;52.132;5.418;2023-07-20T11:20:53;101645.38;;;25.18;35.43
79729;BME280;69218;52.132;5.418;2023-07-20T11:23:20;101645.50;;;24.76;35.16
79729;BME280;69218;52.132;5.418;2023-07-20T11:25:49;101637.56;;;24.61;37.59
79729;BME280;69218;52.132;5.418;2023-07-20T11:28:15;101636.97;;;24.65;34.15
79729;BME280;69218;52.132;5.418;2023-07-20T11:30:42;101631.50;;;24.80;34.23
79729;BME280;69218;52.132;5.418;2023-07-20T11:33:09;101632.31;;;24.74;36.47
79729;BME280;69218;52.132;5.418;2023-07-20T11:35:42;101629.44;;;24.76;34.53
79729;BME280;69218;52.132;5.418;2023-07-20T11:38:10;101626.81;;;24.89;37.08
79729;BME280;69218;52.132;5.418;2023-07-20T11:40:36;101634.25;;;25.22;36.72
79729;BME280;69218;52.132;5.418;2023-07-20T11:43:03;101628.25;;;25.19;36.48
79729;BME280;69218;52.132;5.418;2023-07-20T11:45:32;101622.28;;;25.24;34.79
79729;BME280;69218;52.132;5.418;2023-07-20T11:47:59;101627.72;;;25.44;35.68
79729;BME280;69218;52.132;5.418;2023-07-20T11:50:26;101617.56;;;25.81;36.16
79729;BME280;69218;52.132;5.418;2023-07-20T11:52:53;101610.13;;;25.89;33.09
79729;BME280;69218;52.132;5.418;2023-07-20T11:55:23;101615.31;;;26.17;34.44
79729;BME280;69218;52.132;5.418;2023-07-20T11:58:06;101613.03;;;26.34;34.49
79729;BME280;69218;52.132;5.418;2023-07-20T12:00:34;101610.53;;;26.06;33.92
79729;BME280;69218;52.132;5.418;2023-07-20T12:03:01;101605.16;;;26.13;30.34
79729;BME280;69218;52.132;5.418;2023-07-20T12:05:27;101601.22;;;26.35;31.88
79729;BME280;69218;52.132;5.418;2023-07-20T12:07:54;101601.69;;;26.45;33.39
79729;BME280;69218;52.132;5.418;2023-07-20T12:10:26;101602.88;;;26.69;33.10
79729;BME280;69218;52.132;5.418;2023-07-20T12:12:52;101604.38;;;26.45;32.46
79729;BME280;69218;52.132;5.418;2023-07-20T12:15:24;101609.72;;;26.25;34.74
79729;BME280;69218;52.132;5.418;2023-07-20T12:17:57;101598.16;;;26.58;33.42
79729;BME280;69218;52.132;5.418;2023-07-20T12:23:00;101588.75;;;27.07;32.02
79729;BME280;69218;52.132;5.418;2023-07-20T12:28:09;101595.88;;;26.09;33.60
79729;BME280;69218;52.132;5.418;2023-07-20T12:30:37;101597.50;;;25.83;34.50
79729;BME280;69218;52.132;5.418;2023-07-20T12:33:04;101596.19;;;25.59;37.26
79729;BME280;69218;52.132;5.418;2023-07-20T12:35:31;101598.34;;;25.29;34.77
79729;BME280;69218;52.132;5.418;2023-07-20T12:37:58;101603.28;;;25.19;35.66
79729;BME280;69218;52.132;5.418;2023-07-20T12:40:25;101593.47;;;25.46;35.00
79729;BME280;69218;52.132;5.418;2023-07-20T12:42:51;101591.25;;;25.69;35.36
79729;BME280;69218;52.132;5.418;2023-07-20T12:45:19;101595.94;;;25.47;36.27
79729;BME280;69218;52.132;5.418;2023-07-20T12:47:46;101598.56;;;25.34;36.83
79729;BME280;69218;52.132;5.418;2023-07-20T12:50:12;101594.38;;;25.18;34.59
79729;BME280;69218;52.132;5.418;2023-07-20T12:52:40;101595.53;;;25.03;37.09
79729;BME280;69218;52.132;5.418;2023-07-20T12:55:08;101589.66;;;24.86;38.23
79729;BME280;69218;52.132;5.418;2023-07-20T12:57:35;101591.31;;;24.87;39.99
79729;BME280;69218;52.132;5.418;2023-07-20T13:00:06;101593.63;;;24.97;39.27
79729;BME280;69218;52.132;5.418;2023-07-20T13:02:38;101587.63;;;24.94;37.38
79729;BME280;69218;52.132;5.418;2023-07-20T13:05:05;101597.03;;;24.77;37.24
79729;BME280;69218;52.132;5.418;2023-07-20T13:07:33;101584.25;;;24.79;38.27
79729;BME280;69218;52.132;5.418;2023-07-20T13:10:04;101594.09;;;24.72;36.06
79729;BME280;69218;52.132;5.418;2023-07-20T13:12:32;101584.03;;;24.74;38.39
79729;BME280;69218;52.132;5.418;2023-07-20T13:15:00;101588.19;;;24.83;37.74
79729;BME280;69218;52.132;5.418;2023-07-20T13:17:28;101582.66;;;24.91;39.10
79729;BME280;69218;52.132;5.418;2023-07-20T13:19:55;101586.66;;;25.02;38.57
79729;BME280;69218;52.132;5.418;2023-07-20T13:22:22;101583.13;;;25.02;38.14
79729;BME280;69218;52.132;5.418;2023-07-20T13:24:50;101582.47;;;24.93;39.39